sensor_id;sensor_type;location;lat;lon;timestamp;temperature;humidity
4908;DHT22;64375;51.540;7.364;2023-04-15T00:02:12;15.50;76.20
4908;DHT22;64375;51.540;7.364;2023-04-15T00:04:50;15.40;72.10
4908;DHT22;64375;51.540;7.364;2023-04-15T00:07:21;15.20;71.00
4908;DHT22;64375;51.540;7.364;2023-04-15T00:09:59;15.00;71.30
4908;DHT22;64375;51.540;7.364;2023-04-15T00:12:35;14.80;70.80
4908;DHT22;64375;51.540;7.364;2023-04-15T00:15:15;14.80;75.40
4908;DHT22;64375;51.540;7.364;2023-04-15T00:17:43;15.00;76.20
4908;DHT22;64375;51.540;7.364;2023-04-15T00:20:12;15.20;79.10
4908;DHT22;64375;51.540;7.364;2023-04-15T00:22:42;15.40;78.60
4908;DHT22;64375;51.540;7.364;2023-04-15T00:25:10;15.40;78.00
4908;DHT22;64375;51.540;7.364;2023-04-15T00:27:39;15.50;77.40
4908;DHT22;64375;51.540;7.364;2023-04-15T00:30:13;15.60;78.10
4908;DHT22;64375;51.540;7.364;2023-04-15T00:32:42;15.60;77.80
4908;DHT22;64375;51.540;7.364;2023-04-15T00:35:10;15.70;77.60
4908;DHT22;64375;51.540;7.364;2023-04-15T00:37:41;15.60;77.40
4908;DHT22;64375;51.540;7.364;2023-04-15T00:40:12;15.80;78.50
4908;DHT22;64375;51.540;7.364;2023-04-15T00:42:41;15.80;76.80
4908;DHT22;64375;51.540;7.364;2023-04-15T00:45:19;15.50;71.80
4908;DHT22;64375;51.540;7.364;2023-04-15T00:47:53;15.20;71.40
4908;DHT22;64375;51.540;7.364;2023-04-15T00:50:21;15.30;76.40
4908;DHT22;64375;51.540;7.364;2023-04-15T00:52:52;15.30;77.40
4908;DHT22;64375;51.540;7.364;2023-04-15T00:55:23;15.30;75.80
4908;DHT22;64375;51.540;7.364;2023-04-15T00:57:55;15.30;77.60
4908;DHT22;64375;51.540;7.364;2023-04-15T01:00:26;15.50;78.70
4908;DHT22;64375;51.540;7.364;2023-04-15T01:03:05;15.40;76.00
4908;DHT22;64375;51.540;7.364;2023-04-15T01:05:42;15.10;72.70
4908;DHT22;64375;51.540;7.364;2023-04-15T01:08:16;15.10;74.70
4908;DHT22;64375;51.540;7.364;2023-04-15T01:10:46;15.10;76.90
4908;DHT22;64375;51.540;7.364;2023-04-15T01:13:15;15.10;76.60
4908;DHT22;64375;51.540;7.364;2023-04-15T01:15:43;15.00;75.30
4908;DHT22;64375;51.540;7.364;2023-04-15T01:18:11;15.00;76.20
4908;DHT22;64375;51.540;7.364;2023-04-15T01:20:40;15.10;78.90
4908;DHT22;64375;51.540;7.364;2023-04-15T01:23:08;15.00;75.20
4908;DHT22;64375;51.540;7.364;2023-04-15T01:25:38;15.00;77.00
4908;DHT22;64375;51.540;7.364;2023-04-15T01:28:08;15.00;77.20
4908;DHT22;64375;51.540;7.364;2023-04-15T01:30:36;15.00;77.20
4908;DHT22;64375;51.540;7.364;2023-04-15T01:33:07;15.10;78.10
4908;DHT22;64375;51.540;7.364;2023-04-15T01:35:41;15.00;76.50
4908;DHT22;64375;51.540;7.364;2023-04-15T01:38:10;15.10;79.10
4908;DHT22;64375;51.540;7.364;2023-04-15T01:40:40;15.20;80.00
4908;DHT22;64375;51.540;7.364;2023-04-15T01:43:08;15.20;76.60
4908;DHT22;64375;51.540;7.364;2023-04-15T01:45:36;15.10;77.50
4908;DHT22;64375;51.540;7.364;2023-04-15T01:48:04;15.20;79.00
4908;DHT22;64375;51.540;7.364;2023-04-15T01:50:32;15.30;77.70
4908;DHT22;64375;51.540;7.364;2023-04-15T01:53:08;15.20;76.10
4908;DHT22;64375;51.540;7.364;2023-04-15T01:55:43;15.20;79.50
4908;DHT22;64375;51.540;7.364;2023-04-15T01:58:30;15.30;79.20
4908;DHT22;64375;51.540;7.364;2023-04-15T02:00:58;15.20;75.30
4908;DHT22;64375;51.540;7.364;2023-04-15T02:03:29;14.70;70.20
4908;DHT22;64375;51.540;7.364;2023-04-15T02:06:08;14.40;72.20
4908;DHT22;64375;51.540;7.364;2023-04-15T02:08:41;14.40;75.10
4908;DHT22;64375;51.540;7.364;2023-04-15T02:11:13;14.50;78.50
4908;DHT22;64375;51.540;7.364;2023-04-15T02:13:41;14.70;80.20
4908;DHT22;64375;51.540;7.364;2023-04-15T02:16:16;14.80;79.90
4908;DHT22;64375;51.540;7.364;2023-04-15T02:18:50;14.80;77.30
4908;DHT22;64375;51.540;7.364;2023-04-15T02:21:27;14.40;71.70
4908;DHT22;64375;51.540;7.364;2023-04-15T02:23:57;14.20;72.80
4908;DHT22;64375;51.540;7.364;2023-04-15T02:26:32;14.10;73.80
4908;DHT22;64375;51.540;7.364;2023-04-15T02:29:00;14.10;74.70
4908;DHT22;64375;51.540;7.364;2023-04-15T02:31:28;14.20;78.80
4908;DHT22;64375;51.540;7.364;2023-04-15T02:33:59;14.40;79.90
4908;DHT22;64375;51.540;7.364;2023-04-15T02:36:30;14.50;79.90
4908;DHT22;64375;51.540;7.364;2023-04-15T02:39:00;14.50;79.40
4908;DHT22;64375;51.540;7.364;2023-04-15T02:41:30;14.50;76.50
4908;DHT22;64375;51.540;7.364;2023-04-15T02:44:03;14.30;75.30
4908;DHT22;64375;51.540;7.364;2023-04-15T02:46:32;14.20;76.10
4908;DHT22;64375;51.540;7.364;2023-04-15T02:49:00;14.40;80.00
4908;DHT22;64375;51.540;7.364;2023-04-15T02:51:29;14.40;77.60
4908;DHT22;64375;51.540;7.364;2023-04-15T02:54:00;14.40;78.60
4908;DHT22;64375;51.540;7.364;2023-04-15T02:56:37;14.40;77.70
4908;DHT22;64375;51.540;7.364;2023-04-15T02:59:05;14.20;74.80
4908;DHT22;64375;51.540;7.364;2023-04-15T03:01:39;14.20;77.10
4908;DHT22;64375;51.540;7.364;2023-04-15T03:04:09;14.00;74.40
4908;DHT22;64375;51.540;7.364;2023-04-15T03:06:37;14.20;79.90
4908;DHT22;64375;51.540;7.364;2023-04-15T03:09:05;14.30;79.90
4908;DHT22;64375;51.540;7.364;2023-04-15T03:11:47;14.30;78.20
4908;DHT22;64375;51.540;7.364;2023-04-15T03:14:15;13.90;73.50
4908;DHT22;64375;51.540;7.364;2023-04-15T03:16:48;13.80;75.20
4908;DHT22;64375;51.540;7.364;2023-04-15T03:19:17;13.90;77.40
4908;DHT22;64375;51.540;7.364;2023-04-15T03:21:48;13.80;77.00
4908;DHT22;64375;51.540;7.364;2023-04-15T03:24:16;13.90;78.50
4908;DHT22;64375;51.540;7.364;2023-04-15T03:26:59;13.90;76.70
4908;DHT22;64375;51.540;7.364;2023-04-15T03:29:39;13.50;73.20
4908;DHT22;64375;51.540;7.364;2023-04-15T03:32:07;13.50;74.90
4908;DHT22;64375;51.540;7.364;2023-04-15T03:34:35;13.20;74.60
4908;DHT22;64375;51.540;7.364;2023-04-15T03:37:04;13.10;75.00
4908;DHT22;64375;51.540;7.364;2023-04-15T03:39:35;13.20;77.70
4908;DHT22;64375;51.540;7.364;2023-04-15T03:42:07;13.40;80.20
4908;DHT22;64375;51.540;7.364;2023-04-15T03:44:35;13.30;77.10
4908;DHT22;64375;51.540;7.364;2023-04-15T03:47:07;13.30;78.20
4908;DHT22;64375;51.540;7.364;2023-04-15T03:49:37;13.30;77.00
4908;DHT22;64375;51.540;7.364;2023-04-15T03:52:08;13.30;77.60
4908;DHT22;64375;51.540;7.364;2023-04-15T03:54:38;13.20;75.30
4908;DHT22;64375;51.540;7.364;2023-04-15T03:57:07;13.20;77.90
4908;DHT22;64375;51.540;7.364;2023-04-15T03:59:38;13.30;81.50
4908;DHT22;64375;51.540;7.364;2023-04-15T04:02:09;13.30;77.60
4908;DHT22;64375;51.540;7.364;2023-04-15T04:04:49;13.10;75.90
4908;DHT22;64375;51.540;7.364;2023-04-15T04:07:22;13.00;75.90
4908;DHT22;64375;51.540;7.364;2023-04-15T04:09:53;12.90;76.30
4908;DHT22;64375;51.540;7.364;2023-04-15T04:12:22;12.80;77.90
4908;DHT22;64375;51.540;7.364;2023-04-15T04:14:50;13.00;81.10
4908;DHT22;64375;51.540;7.364;2023-04-15T04:17:27;13.10;82.10
4908;DHT22;64375;51.540;7.364;2023-04-15T04:20:05;13.10;79.80
4908;DHT22;64375;51.540;7.364;2023-04-15T04:22:37;13.30;82.60
4908;DHT22;64375;51.540;7.364;2023-04-15T04:25:07;13.50;82.10
4908;DHT22;64375;51.540;7.364;2023-04-15T04:27:42;13.40;79.80
4908;DHT22;64375;51.540;7.364;2023-04-15T04:30:14;13.30;78.00
4908;DHT22;64375;51.540;7.364;2023-04-15T04:32:42;13.20;77.30
4908;DHT22;64375;51.540;7.364;2023-04-15T04:35:10;13.20;79.80
4908;DHT22;64375;51.540;7.364;2023-04-15T04:37:42;13.40;82.80
4908;DHT22;64375;51.540;7.364;2023-04-15T04:40:14;13.60;81.70
4908;DHT22;64375;51.540;7.364;2023-04-15T04:42:43;13.50;78.80
4908;DHT22;64375;51.540;7.364;2023-04-15T04:45:11;13.50;80.30
4908;DHT22;64375;51.540;7.364;2023-04-15T04:47:39;13.50;81.40
4908;DHT22;64375;51.540;7.364;2023-04-15T04:50:10;13.50;81.00
4908;DHT22;64375;51.540;7.364;2023-04-15T04:52:41;13.70;82.70
4908;DHT22;64375;51.540;7.364;2023-04-15T04:55:12;13.80;83.10
4908;DHT22;64375;51.540;7.364;2023-04-15T04:57:42;13.90;82.80
4908;DHT22;64375;51.540;7.364;2023-04-15T05:00:12;14.00;82.90
4908;DHT22;64375;51.540;7.364;2023-04-15T05:02:40;14.00;82.60
4908;DHT22;64375;51.540;7.364;2023-04-15T05:05:10;14.00;82.30
4908;DHT22;64375;51.540;7.364;2023-04-15T05:07:41;13.80;80.10
4908;DHT22;64375;51.540;7.364;2023-04-15T05:10:12;13.40;74.40
4908;DHT22;64375;51.540;7.364;2023-04-15T05:12:43;13.30;79.00
4908;DHT22;64375;51.540;7.364;2023-04-15T05:15:22;13.50;82.40
4908;DHT22;64375;51.540;7.364;2023-04-15T05:17:50;13.50;81.30
4908;DHT22;64375;51.540;7.364;2023-04-15T05:20:18;13.60;82.50
4908;DHT22;64375;51.540;7.364;2023-04-15T05:22:51;13.80;83.20
4908;DHT22;64375;51.540;7.364;2023-04-15T05:25:29;13.90;83.20
4908;DHT22;64375;51.540;7.364;2023-04-15T05:28:00;14.00;82.10
4908;DHT22;64375;51.540;7.364;2023-04-15T05:30:32;13.80;79.30
4908;DHT22;64375;51.540;7.364;2023-04-15T05:33:03;14.00;82.90
4908;DHT22;64375;51.540;7.364;2023-04-15T05:35:31;14.00;82.50
4908;DHT22;64375;51.540;7.364;2023-04-15T05:37:59;13.80;79.00
4908;DHT22;64375;51.540;7.364;2023-04-15T05:40:29;13.50;76.00
4908;DHT22;64375;51.540;7.364;2023-04-15T05:42:57;13.30;79.90
4908;DHT22;64375;51.540;7.364;2023-04-15T05:45:25;13.50;84.00
4908;DHT22;64375;51.540;7.364;2023-04-15T05:48:00;13.70;84.40
4908;DHT22;64375;51.540;7.364;2023-04-15T05:50:28;13.80;84.20
4908;DHT22;64375;51.540;7.364;2023-04-15T05:52:56;13.90;83.50
4908;DHT22;64375;51.540;7.364;2023-04-15T05:55:24;13.90;83.00
4908;DHT22;64375;51.540;7.364;2023-04-15T05:57:53;14.00;83.70
4908;DHT22;64375;51.540;7.364;2023-04-15T06:00:21;14.00;83.70
4908;DHT22;64375;51.540;7.364;2023-04-15T06:02:49;14.00;83.30
4908;DHT22;64375;51.540;7.364;2023-04-15T06:05:33;13.80;78.90
4908;DHT22;64375;51.540;7.364;2023-04-15T06:08:01;13.40;79.00
4908;DHT22;64375;51.540;7.364;2023-04-15T06:10:29;13.20;78.60
4908;DHT22;64375;51.540;7.364;2023-04-15T06:13:02;12.70;78.30
4908;DHT22;64375;51.540;7.364;2023-04-15T06:15:30;12.60;83.00
4908;DHT22;64375;51.540;7.364;2023-04-15T06:18:01;12.70;83.00
4908;DHT22;64375;51.540;7.364;2023-04-15T06:20:29;12.50;80.30
4908;DHT22;64375;51.540;7.364;2023-04-15T06:22:58;12.30;81.70
4908;DHT22;64375;51.540;7.364;2023-04-15T06:25:27;12.30;81.80
4908;DHT22;64375;51.540;7.364;2023-04-15T06:27:59;12.20;82.40
4908;DHT22;64375;51.540;7.364;2023-04-15T06:30:29;12.20;83.50
4908;DHT22;64375;51.540;7.364;2023-04-15T06:32:57;12.20;83.10
4908;DHT22;64375;51.540;7.364;2023-04-15T06:35:25;12.20;83.60
4908;DHT22;64375;51.540;7.364;2023-04-15T06:38:01;12.40;85.00
4908;DHT22;64375;51.540;7.364;2023-04-15T06:40:31;12.60;84.40
4908;DHT22;64375;51.540;7.364;2023-04-15T06:43:02;12.60;81.40
4908;DHT22;64375;51.540;7.364;2023-04-15T06:45:30;12.10;83.00
4908;DHT22;64375;51.540;7.364;2023-04-15T06:48:10;11.80;84.00
4908;DHT22;64375;51.540;7.364;2023-04-15T06:50:41;11.90;84.50
4908;DHT22;64375;51.540;7.364;2023-04-15T06:53:10;11.50;85.40
4908;DHT22;64375;51.540;7.364;2023-04-15T06:55:38;11.10;86.40
4908;DHT22;64375;51.540;7.364;2023-04-15T06:58:10;11.10;87.40
4908;DHT22;64375;51.540;7.364;2023-04-15T07:00:37;11.20;88.00
4908;DHT22;64375;51.540;7.364;2023-04-15T07:03:10;11.30;87.70
4908;DHT22;64375;51.540;7.364;2023-04-15T07:05:38;11.40;87.90
4908;DHT22;64375;51.540;7.364;2023-04-15T07:08:11;11.40;88.00
4908;DHT22;64375;51.540;7.364;2023-04-15T07:10:48;11.10;88.60
4908;DHT22;64375;51.540;7.364;2023-04-15T07:13:17;11.10;90.40
4908;DHT22;64375;51.540;7.364;2023-04-15T07:15:45;11.30;90.30
4908;DHT22;64375;51.540;7.364;2023-04-15T07:18:13;11.30;89.80
4908;DHT22;64375;51.540;7.364;2023-04-15T07:20:41;11.00;90.60
4908;DHT22;64375;51.540;7.364;2023-04-15T07:23:10;10.90;90.80
4908;DHT22;64375;51.540;7.364;2023-04-15T07:25:38;10.60;91.40
4908;DHT22;64375;51.540;7.364;2023-04-15T07:28:06;10.60;91.70
4908;DHT22;64375;51.540;7.364;2023-04-15T07:30:34;10.50;91.80
4908;DHT22;64375;51.540;7.364;2023-04-15T07:33:02;10.40;92.00
4908;DHT22;64375;51.540;7.364;2023-04-15T07:35:30;10.30;92.50
4908;DHT22;64375;51.540;7.364;2023-04-15T07:37:58;10.20;92.40
4908;DHT22;64375;51.540;7.364;2023-04-15T07:40:31;10.10;92.50
4908;DHT22;64375;51.540;7.364;2023-04-15T07:43:00;9.90;94.90
4908;DHT22;64375;51.540;7.364;2023-04-15T07:45:27;9.90;94.10
4908;DHT22;64375;51.540;7.364;2023-04-15T07:48:01;9.70;95.10
4908;DHT22;64375;51.540;7.364;2023-04-15T07:50:29;9.80;95.70
4908;DHT22;64375;51.540;7.364;2023-04-15T07:53:03;10.20;96.20
4908;DHT22;64375;51.540;7.364;2023-04-15T07:55:34;10.20;94.50
4908;DHT22;64375;51.540;7.364;2023-04-15T07:58:06;10.30;95.90
4908;DHT22;64375;51.540;7.364;2023-04-15T08:00:33;10.60;96.80
4908;DHT22;64375;51.540;7.364;2023-04-15T08:03:04;10.90;95.40
4908;DHT22;64375;51.540;7.364;2023-04-15T08:05:33;10.70;94.30
4908;DHT22;64375;51.540;7.364;2023-04-15T08:08:03;10.40;94.80
4908;DHT22;64375;51.540;7.364;2023-04-15T08:10:31;10.50;95.60
4908;DHT22;64375;51.540;7.364;2023-04-15T08:13:03;10.50;95.40
4908;DHT22;64375;51.540;7.364;2023-04-15T08:15:34;10.40;95.70
4908;DHT22;64375;51.540;7.364;2023-04-15T08:18:04;10.50;95.30
4908;DHT22;64375;51.540;7.364;2023-04-15T08:20:38;10.50;95.40
4908;DHT22;64375;51.540;7.364;2023-04-15T08:23:11;10.50;95.60
4908;DHT22;64375;51.540;7.364;2023-04-15T08:25:39;10.60;95.30
4908;DHT22;64375;51.540;7.364;2023-04-15T08:28:09;10.60;95.20
4908;DHT22;64375;51.540;7.364;2023-04-15T08:30:40;10.60;95.50
4908;DHT22;64375;51.540;7.364;2023-04-15T08:33:09;10.80;96.50
4908;DHT22;64375;51.540;7.364;2023-04-15T08:35:40;10.90;95.80
4908;DHT22;64375;51.540;7.364;2023-04-15T08:38:08;11.00;95.00
4908;DHT22;64375;51.540;7.364;2023-04-15T08:40:43;10.80;95.30
4908;DHT22;64375;51.540;7.364;2023-04-15T08:43:21;10.60;95.40
4908;DHT22;64375;51.540;7.364;2023-04-15T08:45:55;10.70;95.80
4908;DHT22;64375;51.540;7.364;2023-04-15T08:48:27;10.70;96.30
4908;DHT22;64375;51.540;7.364;2023-04-15T08:50:55;10.80;95.80
4908;DHT22;64375;51.540;7.364;2023-04-15T08:53:30;10.80;95.50
4908;DHT22;64375;51.540;7.364;2023-04-15T08:56:06;10.70;95.10
4908;DHT22;64375;51.540;7.364;2023-04-15T08:58:37;10.40;95.50
4908;DHT22;64375;51.540;7.364;2023-04-15T09:01:11;10.20;95.80
4908;DHT22;64375;51.540;7.364;2023-04-15T09:03:40;10.20;96.60
4908;DHT22;64375;51.540;7.364;2023-04-15T09:06:09;10.20;96.30
4908;DHT22;64375;51.540;7.364;2023-04-15T09:08:36;10.20;97.00
4908;DHT22;64375;51.540;7.364;2023-04-15T09:11:07;10.10;97.00
4908;DHT22;64375;51.540;7.364;2023-04-15T09:13:37;10.20;97.40
4908;DHT22;64375;51.540;7.364;2023-04-15T09:16:05;10.30;96.90
4908;DHT22;64375;51.540;7.364;2023-04-15T09:18:35;10.40;97.10
4908;DHT22;64375;51.540;7.364;2023-04-15T09:21:04;10.40;97.00
4908;DHT22;64375;51.540;7.364;2023-04-15T09:23:34;10.50;97.30
4908;DHT22;64375;51.540;7.364;2023-04-15T09:26:03;10.50;96.70
4908;DHT22;64375;51.540;7.364;2023-04-15T09:28:41;10.30;97.00
4908;DHT22;64375;51.540;7.364;2023-04-15T09:31:12;10.20;97.30
4908;DHT22;64375;51.540;7.364;2023-04-15T09:33:54;10.00;97.70
4908;DHT22;64375;51.540;7.364;2023-04-15T09:36:23;10.00;98.00
4908;DHT22;64375;51.540;7.364;2023-04-15T09:38:59;10.00;98.50
4908;DHT22;64375;51.540;7.364;2023-04-15T09:41:36;10.10;98.50
4908;DHT22;64375;51.540;7.364;2023-04-15T09:44:26;10.20;98.20
4908;DHT22;64375;51.540;7.364;2023-04-15T09:47:03;10.20;98.60
4908;DHT22;64375;51.540;7.364;2023-04-15T09:49:54;10.50;98.60
4908;DHT22;64375;51.540;7.364;2023-04-15T09:52:27;10.50;97.90
4908;DHT22;64375;51.540;7.364;2023-04-15T09:54:56;10.40;97.80
4908;DHT22;64375;51.540;7.364;2023-04-15T09:57:25;10.40;98.20
4908;DHT22;64375;51.540;7.364;2023-04-15T10:00:01;10.20;98.10
4908;DHT22;64375;51.540;7.364;2023-04-15T10:02:33;10.30;98.60
4908;DHT22;64375;51.540;7.364;2023-04-15T10:05:03;10.40;98.40
4908;DHT22;64375;51.540;7.364;2023-04-15T10:07:31;10.60;98.50
4908;DHT22;64375;51.540;7.364;2023-04-15T10:10:03;10.60;98.20
4908;DHT22;64375;51.540;7.364;2023-04-15T10:12:36;10.70;98.10
4908;DHT22;64375;51.540;7.364;2023-04-15T10:15:24;10.60;98.00
4908;DHT22;64375;51.540;7.364;2023-04-15T10:17:53;10.60;98.10
4908;DHT22;64375;51.540;7.364;2023-04-15T10:20:23;10.70;98.10
4908;DHT22;64375;51.540;7.364;2023-04-15T10:22:52;10.60;98.10
4908;DHT22;64375;51.540;7.364;2023-04-15T10:25:21;10.50;98.40
4908;DHT22;64375;51.540;7.364;2023-04-15T10:27:50;10.60;98.60
4908;DHT22;64375;51.540;7.364;2023-04-15T10:30:19;10.80;98.60
4908;DHT22;64375;51.540;7.364;2023-04-15T10:32:49;10.80;98.00
4908;DHT22;64375;51.540;7.364;2023-04-15T10:35:17;10.70;98.00
4908;DHT22;64375;51.540;7.364;2023-04-15T10:37:48;10.60;98.30
4908;DHT22;64375;51.540;7.364;2023-04-15T10:40:27;10.70;98.30
4908;DHT22;64375;51.540;7.364;2023-04-15T10:42:58;10.80;98.70
4908;DHT22;64375;51.540;7.364;2023-04-15T10:45:27;10.80;98.30
4908;DHT22;64375;51.540;7.364;2023-04-15T10:47:59;10.70;98.30
4908;DHT22;64375;51.540;7.364;2023-04-15T10:50:30;10.60;98.60
4908;DHT22;64375;51.540;7.364;2023-04-15T10:53:00;10.80;99.80
4908;DHT22;64375;51.540;7.364;2023-04-15T10:55:31;10.80;98.90
4908;DHT22;64375;51.540;7.364;2023-04-15T10:58:00;10.70;98.30
4908;DHT22;64375;51.540;7.364;2023-04-15T11:00:36;10.80;98.70
4908;DHT22;64375;51.540;7.364;2023-04-15T11:03:09;10.90;98.60
4908;DHT22;64375;51.540;7.364;2023-04-15T11:05:55;10.90;98.30
4908;DHT22;64375;51.540;7.364;2023-04-15T11:08:57;10.90;98.40
4908;DHT22;64375;51.540;7.364;2023-04-15T11:12:05;11.00;98.70
4908;DHT22;64375;51.540;7.364;2023-04-15T11:14:39;11.30;98.30
4908;DHT22;64375;51.540;7.364;2023-04-15T11:17:08;11.30;98.20
4908;DHT22;64375;51.540;7.364;2023-04-15T11:19:40;11.20;97.50
4908;DHT22;64375;51.540;7.364;2023-04-15T11:22:09;11.00;97.80
4908;DHT22;64375;51.540;7.364;2023-04-15T11:24:46;11.10;98.20
4908;DHT22;64375;51.540;7.364;2023-04-15T11:27:31;11.30;99.70
4908;DHT22;64375;51.540;7.364;2023-04-15T11:30:19;11.50;97.90
4908;DHT22;64375;51.540;7.364;2023-04-15T11:32:51;11.50;97.30
4908;DHT22;64375;51.540;7.364;2023-04-15T11:35:21;11.30;97.50
4908;DHT22;64375;51.540;7.364;2023-04-15T11:37:49;11.40;98.20
4908;DHT22;64375;51.540;7.364;2023-04-15T11:40:22;11.50;98.40
4908;DHT22;64375;51.540;7.364;2023-04-15T11:43:03;11.70;97.80
4908;DHT22;64375;51.540;7.364;2023-04-15T11:45:34;11.50;97.10
4908;DHT22;64375;51.540;7.364;2023-04-15T11:48:06;11.30;97.30
4908;DHT22;64375;51.540;7.364;2023-04-15T11:50:37;11.40;98.60
4908;DHT22;64375;51.540;7.364;2023-04-15T11:53:07;11.30;97.40
4908;DHT22;64375;51.540;7.364;2023-04-15T11:55:42;11.20;97.90
4908;DHT22;64375;51.540;7.364;2023-04-15T11:58:13;11.10;98.60
4908;DHT22;64375;51.540;7.364;2023-04-15T12:00:46;11.10;98.40
4908;DHT22;64375;51.540;7.364;2023-04-15T12:03:18;11.00;98.40
4908;DHT22;64375;51.540;7.364;2023-04-15T12:06:11;11.00;98.60
4908;DHT22;64375;51.540;7.364;2023-04-15T12:09:00;11.10;98.80
4908;DHT22;64375;51.540;7.364;2023-04-15T12:11:30;11.30;99.50
4908;DHT22;64375;51.540;7.364;2023-04-15T12:14:03;11.40;98.30
4908;DHT22;64375;51.540;7.364;2023-04-15T12:16:36;11.40;97.90
4908;DHT22;64375;51.540;7.364;2023-04-15T12:19:18;11.40;98.20
4908;DHT22;64375;51.540;7.364;2023-04-15T12:21:57;11.40;99.00
4908;DHT22;64375;51.540;7.364;2023-04-15T12:24:27;11.40;98.30
4908;DHT22;64375;51.540;7.364;2023-04-15T12:27:01;11.60;99.00
4908;DHT22;64375;51.540;7.364;2023-04-15T12:29:30;11.60;98.20
4908;DHT22;64375;51.540;7.364;2023-04-15T12:32:04;11.60;97.60
4908;DHT22;64375;51.540;7.364;2023-04-15T12:34:40;11.40;97.80
4908;DHT22;64375;51.540;7.364;2023-04-15T12:37:12;11.50;98.30
4908;DHT22;64375;51.540;7.364;2023-04-15T12:39:41;11.50;98.10
4908;DHT22;64375;51.540;7.364;2023-04-15T12:42:10;11.70;99.90
4908;DHT22;64375;51.540;7.364;2023-04-15T12:44:38;11.90;99.90
4908;DHT22;64375;51.540;7.364;2023-04-15T12:47:08;12.20;99.70
4908;DHT22;64375;51.540;7.364;2023-04-15T12:49:36;12.40;98.30
4908;DHT22;64375;51.540;7.364;2023-04-15T12:52:05;12.40;97.20
4908;DHT22;64375;51.540;7.364;2023-04-15T12:54:34;12.50;98.20
4908;DHT22;64375;51.540;7.364;2023-04-15T12:57:05;12.50;97.60
4908;DHT22;64375;51.540;7.364;2023-04-15T12:59:34;12.50;97.40
4908;DHT22;64375;51.540;7.364;2023-04-15T13:02:02;12.30;96.90
4908;DHT22;64375;51.540;7.364;2023-04-15T13:04:31;12.30;97.00
4908;DHT22;64375;51.540;7.364;2023-04-15T13:07:02;12.20;97.20
4908;DHT22;64375;51.540;7.364;2023-04-15T13:09:33;12.10;97.20
4908;DHT22;64375;51.540;7.364;2023-04-15T13:12:13;11.90;97.40
4908;DHT22;64375;51.540;7.364;2023-04-15T13:14:42;12.00;97.70
4908;DHT22;64375;51.540;7.364;2023-04-15T13:17:10;12.10;98.30
4908;DHT22;64375;51.540;7.364;2023-04-15T13:19:42;12.30;97.60
4908;DHT22;64375;51.540;7.364;2023-04-15T13:22:18;12.10;97.50
4908;DHT22;64375;51.540;7.364;2023-04-15T13:24:50;12.00;98.40
4908;DHT22;64375;51.540;7.364;2023-04-15T13:27:18;12.00;97.30
4908;DHT22;64375;51.540;7.364;2023-04-15T13:29:46;11.90;97.30
4908;DHT22;64375;51.540;7.364;2023-04-15T13:32:13;11.80;97.60
4908;DHT22;64375;51.540;7.364;2023-04-15T13:34:47;11.90;97.90
4908;DHT22;64375;51.540;7.364;2023-04-15T13:37:18;11.90;97.60
4908;DHT22;64375;51.540;7.364;2023-04-15T13:39:50;12.30;99.50
4908;DHT22;64375;51.540;7.364;2023-04-15T13:42:19;12.20;97.00
4908;DHT22;64375;51.540;7.364;2023-04-15T13:44:48;12.20;97.20
4908;DHT22;64375;51.540;7.364;2023-04-15T13:47:19;12.20;98.80
4908;DHT22;64375;51.540;7.364;2023-04-15T13:49:47;12.20;97.50
4908;DHT22;64375;51.540;7.364;2023-04-15T13:52:18;12.10;97.20
4908;DHT22;64375;51.540;7.364;2023-04-15T13:54:59;12.10;97.10
4908;DHT22;64375;51.540;7.364;2023-04-15T13:57:47;12.40;99.70
4908;DHT22;64375;51.540;7.364;2023-04-15T14:00:31;12.50;97.80
4908;DHT22;64375;51.540;7.364;2023-04-15T14:02:59;12.50;96.40
4908;DHT22;64375;51.540;7.364;2023-04-15T14:05:27;12.30;97.70
4908;DHT22;64375;51.540;7.364;2023-04-15T14:08:01;12.30;97.50
4908;DHT22;64375;51.540;7.364;2023-04-15T14:10:34;12.40;96.80
4908;DHT22;64375;51.540;7.364;2023-04-15T14:13:05;12.30;97.00
4908;DHT22;64375;51.540;7.364;2023-04-15T14:15:46;12.20;97.30
4908;DHT22;64375;51.540;7.364;2023-04-15T14:18:13;12.40;98.40
4908;DHT22;64375;51.540;7.364;2023-04-15T14:20:47;12.40;97.10
4908;DHT22;64375;51.540;7.364;2023-04-15T14:23:21;12.30;96.80
4908;DHT22;64375;51.540;7.364;2023-04-15T14:25:51;12.30;97.20
4908;DHT22;64375;51.540;7.364;2023-04-15T14:28:23;12.30;97.60
4908;DHT22;64375;51.540;7.364;2023-04-15T14:30:53;12.20;97.00
4908;DHT22;64375;51.540;7.364;2023-04-15T14:33:37;12.20;97.60
4908;DHT22;64375;51.540;7.364;2023-04-15T14:36:22;12.00;99.00
4908;DHT22;64375;51.540;7.364;2023-04-15T14:38:49;12.20;98.30
4908;DHT22;64375;51.540;7.364;2023-04-15T14:41:19;12.00;98.30
4908;DHT22;64375;51.540;7.364;2023-04-15T14:43:51;12.20;99.10
4908;DHT22;64375;51.540;7.364;2023-04-15T14:46:18;12.20;98.40
4908;DHT22;64375;51.540;7.364;2023-04-15T14:48:47;12.30;98.50
4908;DHT22;64375;51.540;7.364;2023-04-15T14:51:15;12.60;98.30
4908;DHT22;64375;51.540;7.364;2023-04-15T14:53:46;12.30;97.60
4908;DHT22;64375;51.540;7.364;2023-04-15T14:56:16;12.10;98.40
4908;DHT22;64375;51.540;7.364;2023-04-15T14:58:48;12.20;98.70
4908;DHT22;64375;51.540;7.364;2023-04-15T15:01:18;12.40;99.10
4908;DHT22;64375;51.540;7.364;2023-04-15T15:03:47;12.50;98.50
4908;DHT22;64375;51.540;7.364;2023-04-15T15:06:16;12.60;98.20
4908;DHT22;64375;51.540;7.364;2023-04-15T15:08:47;12.30;98.00
4908;DHT22;64375;51.540;7.364;2023-04-15T15:13:55;12.40;99.00
4908;DHT22;64375;51.540;7.364;2023-04-15T15:16:27;12.40;99.60
4908;DHT22;64375;51.540;7.364;2023-04-15T15:18:55;12.60;99.90
4908;DHT22;64375;51.540;7.364;2023-04-15T15:21:22;12.80;99.00
4908;DHT22;64375;51.540;7.364;2023-04-15T15:23:56;13.20;99.90
4908;DHT22;64375;51.540;7.364;2023-04-15T15:26:31;13.40;98.70
4908;DHT22;64375;51.540;7.364;2023-04-15T15:29:00;13.40;97.70
4908;DHT22;64375;51.540;7.364;2023-04-15T15:31:28;13.40;98.20
4908;DHT22;64375;51.540;7.364;2023-04-15T15:34:07;13.30;97.90
4908;DHT22;64375;51.540;7.364;2023-04-15T15:36:38;13.40;98.70
4908;DHT22;64375;51.540;7.364;2023-04-15T15:39:05;13.80;99.00
4908;DHT22;64375;51.540;7.364;2023-04-15T15:41:40;14.00;98.80
4908;DHT22;64375;51.540;7.364;2023-04-15T15:44:14;14.00;97.50
4908;DHT22;64375;51.540;7.364;2023-04-15T15:46:48;14.10;97.80
4908;DHT22;64375;51.540;7.364;2023-04-15T15:49:25;13.70;97.30
4908;DHT22;64375;51.540;7.364;2023-04-15T15:51:56;13.60;97.70
4908;DHT22;64375;51.540;7.364;2023-04-15T15:54:25;13.60;97.90
4908;DHT22;64375;51.540;7.364;2023-04-15T15:56:55;13.70;97.40
4908;DHT22;64375;51.540;7.364;2023-04-15T15:59:28;13.60;97.40
4908;DHT22;64375;51.540;7.364;2023-04-15T16:01:56;13.30;97.50
4908;DHT22;64375;51.540;7.364;2023-04-15T16:04:24;13.50;98.70
4908;DHT22;64375;51.540;7.364;2023-04-15T16:06:52;13.60;97.70
4908;DHT22;64375;51.540;7.364;2023-04-15T16:09:31;13.40;97.30
4908;DHT22;64375;51.540;7.364;2023-04-15T16:12:01;13.30;97.50
4908;DHT22;64375;51.540;7.364;2023-04-15T16:14:46;13.10;97.90
4908;DHT22;64375;51.540;7.364;2023-04-15T16:17:14;13.20;98.30
4908;DHT22;64375;51.540;7.364;2023-04-15T16:19:42;13.20;98.10